Nearby METAR Reports

 

EGLC - London City Airp, United Kingdom
Distance from station: WNW 7km
Updated: 11/12/2018 06:20
Clear
Clear
 Wind from varies
Wind: varies 1 mph , 2 km/h
Temperature: 5°C
Dew Point: 4°C
Humidity: 93%
Barometer: 1026 hPa
Clouds: Clear
Visibility: 6 miles , 10 km
2018/12/11 06:20 EGLC 110620Z AUTO VRB01KT 9999 NCD 05/04 Q1026
EGKB - Biggin Hill, United Kingdom
Distance from station: SSW 20km
Updated: 11/12/2018 06:20
Clear
Clear
 Wind from S
Wind: S 5 mph , 7 km/h
Temperature: 3°C
Wind Chill: 1°C
Dew Point: 3°C
Humidity: 100%
Barometer: 1026 hPa
Summary: Clear
Visibility: greater than 7 miles , 10 km
2018/12/11 06:20 EGKB 110620Z 18004KT CAVOK 03/03 Q1026
 
EGMC - Southend-On-Sea, United Kingdom
Distance from station: ENE 39km
Updated: 11/12/2018 05:50
Mostly cloudy
Mostly cloudy
 Wind from calm
Wind: Calm
Temperature: 3°C
Dew Point: 2°C
Humidity: 93%
Barometer: 1026 hPa
Clouds: Mostly cloudy
Visibility: 6 miles , 10 km
Cloud details: Few Clouds 701 m
Mostly cloudy 792 m
2018/12/11 05:50 EGMC 110550Z 00000KT 9999 FEW023 BKN026 03/02 Q1026
EGWU - Northolt Raf, United Kingdom
Distance from station: WNW 40km
Updated: 11/12/2018 05:50
Overcast
Overcast
 Wind from calm
Wind: Calm
Temperature: 0°C
Dew Point: 0°C
Humidity: 100%
Barometer: 1026 hPa
Clouds: Overcast
Visibility: 6 miles , 9 km
Cloud details: Few Clouds 91 m
Overcast 1524 m
2018/12/11 05:50 EGWU 110550Z AUTO 00000KT 9000 // FEW003/// OVC050/// 00/M00 Q1026
 
EGLL - London/Heathrow, United Kingdom
Distance from station: W 41km
Updated: 11/12/2018 06:20
Nearby fog, Partly cloudy
Nearby fog, Partly cloudy
 Wind from varies
Wind: varies 3 mph , 6 km/h
Temperature: 3°C
Dew Point: 3°C
Humidity: 100%
Barometer: 1026 hPa
Summary: Nearby Fog
Clouds: Partly cloudy
Visibility: 6 miles , 9 km
2018/12/11 06:20 EGLL 110620Z VRB03KT 9000 4000W VCFG NSC 03/03 Q1026
EGKK - London/Gatwick A, United Kingdom
Distance from station: SSW 44km
Updated: 11/12/2018 06:20
Clear
Clear
 Wind from E
Wind: E 1 mph , 2 km/h
Temperature: 0°C
Dew Point: 0°C
Humidity: 100%
Barometer: 1026 hPa
Summary: Clear
Visibility: greater than 7 miles , 10 km
2018/12/11 06:20 EGKK 110620Z 10001KT CAVOK 00/00 Q1026
 
EGSS - Stansted Airport, United Kingdom
Distance from station: N 46km
Updated: 11/12/2018 06:20
Patches of fog, Mostly cloudy
Patches of fog, Mostly cloudy
 Wind from varies
Wind: varies 3 mph , 6 km/h
Temperature: 1°C
Dew Point: 1°C
Humidity: 100%
Barometer: 1026 hPa
Summary: Patches of Fog
Clouds: Mostly cloudy
Visibility: 0 mile , 0 km
Cloud details: Mostly cloudy 30 m
Mostly cloudy 305 m
2018/12/11 06:20 EGSS 110620Z AUTO VRB03KT 0100 R22/0450 BCFG BKN001 BKN010 01/01 Q1026
KDTW - Detroit/Wayne, Michigan, USA
Distance from station: NW 38km
Updated: 11/12/2018 05:53
Haze, Overcast
Haze, Overcast
 Wind from SSW
Wind: SSW 15 mph , 24 km/h
Temperature: -3°C
Wind Chill: -9°C
Dew Point: -7°C
Humidity: 74%
Barometer: 1019.6 hPa
Summary: Haze
Clouds: Overcast
Visibility: 5 miles , 8 km
Cloud details: Overcast 335 m
2018/12/11 05:53 KDTW 110553Z 21013KT 5SM HZ OVC011 M03/M07 A3011 RMK AO2 SLP204 T10331072 11017 21033 56014